createdAt,value
2019-04-23T06:49:01.557Z,30.24
2019-04-23T07:08:16.312Z,29.94
2019-04-23T07:11:04.771Z,30.15
2019-04-23T07:12:21.939Z,30.24
2019-04-23T07:15:12.918Z,29.45
2019-04-23T07:20:37.792Z,30.03
2019-04-23T07:27:22.646Z,29.35
2019-04-23T07:28:49.801Z,29.35
2019-04-23T07:30:08.695Z,29.54
2019-04-23T07:43:23.057Z,29.73
2019-04-23T07:46:12.292Z,29.63
2019-04-23T07:48:48.046Z,29.54
2019-04-23T07:51:44.970Z,29.32
2019-04-23T07:53:07.027Z,29.32
2019-04-23T07:54:27.357Z,29.52
2019-04-23T07:58:23.807Z,29.72
2019-04-23T07:59:56.325Z,29.52
2019-04-23T08:01:08.362Z,29.62
2019-04-23T08:02:31.194Z,29.52
2019-04-23T08:03:57.714Z,29.52
2019-04-23T08:06:40.580Z,29.02
2019-04-23T08:08:03.472Z,29.30
2019-04-23T08:09:28.165Z,29.30
2019-04-23T08:11:10.979Z,29.11
2019-04-23T08:12:03.010Z,29.21
2019-04-23T08:12:45.372Z,29.11
2019-04-23T08:14:05.172Z,29.30
2019-04-23T08:15:28.116Z,29.21
2019-04-23T08:16:43.885Z,29.30
2019-04-23T08:18:13.463Z,29.32
2019-04-23T08:19:43.974Z,29.30
2019-04-23T08:20:54.148Z,29.01
2019-04-23T08:23:49.073Z,29.11
2019-04-23T08:25:11.017Z,29.21
2019-04-23T08:27:49.313Z,28.81
2019-04-23T08:30:32.661Z,29.21
2019-04-23T08:32:12.353Z,29.51
2019-04-23T08:33:21.294Z,29.30
2019-04-23T08:36:04.074Z,29.30
2019-04-23T08:37:25.359Z,29.30
2019-04-23T08:38:42.624Z,29.30
2019-04-23T08:40:08.179Z,28.91
2019-04-23T08:41:33.697Z,28.71
2019-04-23T08:42:58.518Z,28.32
2019-04-23T08:44:21.511Z,28.81
2019-04-23T08:45:32.889Z,28.32
2019-04-23T08:47:06.879Z,28.81
2019-04-23T08:48:30.301Z,28.81
2019-04-23T08:49:47.644Z,28.11
2019-04-23T08:51:10.755Z,28.32
2019-04-23T08:52:27.199Z,28.61
2019-04-23T08:54:09.200Z,28.21
2019-04-23T08:54:51.960Z,28.21
2019-04-23T08:56:08.898Z,28.11
2019-04-23T08:58:47.304Z,28.21
2019-04-23T09:00:14.458Z,28.11
2019-04-23T09:01:52.462Z,28.32
2019-04-23T09:02:40.504Z,28.11
2019-04-23T09:04:00.410Z,28.41
2019-04-23T09:05:23.592Z,28.11
2019-04-23T09:06:49.469Z,28.11
2019-04-23T09:08:32.380Z,28.41
2019-04-23T09:09:35.784Z,28.41
2019-04-23T09:12:18.822Z,28.61
2019-04-23T09:15:01.826Z,28.02
2019-04-23T09:33:13.890Z,28.71
2019-04-23T09:34:34.947Z,28.60
2019-04-23T09:35:57.291Z,28.61
2019-04-23T09:37:18.724Z,28.32
2019-04-23T09:38:39.566Z,28.40
2019-04-23T09:40:14.945Z,28.61
2019-04-23T09:45:33.791Z,28.11
2019-04-23T09:47:00.382Z,28.21
2019-04-23T09:52:29.682Z,28.11
2019-04-23T09:53:44.449Z,29.21
2019-04-23T09:55:16.002Z,28.11
2019-04-23T09:56:32.554Z,28.71
2019-04-23T09:58:00.734Z,28.02
2019-04-23T09:59:17.661Z,28.11
2019-04-23T10:01:45.513Z,29.11
2019-04-23T10:03:07.603Z,28.32
2019-04-23T10:04:27.911Z,29.11
2019-04-23T10:05:46.055Z,29.21
2019-04-23T10:07:11.311Z,29.30
2019-04-23T10:08:25.422Z,29.30
2019-04-23T10:09:40.651Z,28.91
2019-04-23T10:10:42.221Z,29.30
2019-04-23T10:11:40.946Z,29.30
2019-04-23T10:12:41.920Z,29.11
2019-04-23T10:13:40.703Z,29.21
2019-04-23T10:14:52.910Z,29.01
2019-04-23T10:16:02.420Z,29.30
2019-04-23T10:17:03.987Z,28.91
2019-04-23T10:18:02.539Z,29.01
2019-04-23T10:19:03.772Z,29.01
2019-04-23T10:20:02.780Z,29.11
2019-04-23T10:21:03.385Z,28.81
2019-04-23T10:22:02.304Z,29.21
2019-04-23T10:23:02.389Z,29.21
2019-04-23T10:24:03.319Z,29.30
2019-04-23T10:25:03.541Z,29.51
2019-04-23T10:26:03.827Z,29.41
2019-04-23T10:27:04.050Z,29.32
2019-04-23T10:28:06.917Z,29.51
2019-04-23T10:29:25.760Z,29.21
2019-04-23T10:30:24.452Z,29.30
2019-04-23T10:31:25.129Z,29.30
2019-04-23T10:32:25.441Z,29.42
2019-04-23T10:33:25.486Z,29.30
2019-04-23T10:34:25.367Z,29.30
2019-04-23T10:35:35.048Z,29.41
2019-04-23T10:36:47.401Z,29.21
2019-04-23T10:37:52.886Z,29.30
2019-04-23T10:39:14.697Z,29.41
2019-04-23T10:40:35.839Z,28.61
2019-04-23T10:41:55.369Z,29.41
2019-04-23T10:42:54.367Z,29.21
2019-04-23T10:43:54.957Z,29.21
2019-04-23T10:45:08.732Z,29.30
2019-04-23T10:46:38.050Z,29.11
2019-04-23T10:48:15.548Z,29.41
2019-04-23T10:51:09.211Z,29.21
2019-04-23T10:51:51.606Z,29.01
2019-04-23T10:53:26.143Z,29.11
2019-04-23T10:54:40.875Z,28.81
2019-04-23T10:57:16.691Z,29.01
2019-04-23T10:58:38.493Z,29.01
2019-04-23T11:00:04.373Z,28.81
2019-04-23T11:01:31.461Z,29.52
2019-04-23T11:03:11.784Z,29.51
2019-04-23T11:05:35.470Z,29.01
2019-04-23T11:06:17.770Z,29.21
2019-04-23T11:07:35.309Z,29.21
2019-04-23T11:08:51.783Z,29.21
2019-04-23T11:10:26.280Z,29.21
2019-04-23T11:11:21.955Z,29.11
2019-04-23T11:14:05.807Z,29.21
2019-04-23T11:17:59.179Z,29.10
2019-04-23T11:19:43.992Z,29.21
2019-04-23T11:21:59.613Z,29.01
2019-04-23T11:23:04.642Z,28.91
2019-04-23T11:25:23.150Z,28.99
2019-04-23T11:26:57.774Z,29.11
2019-04-23T11:28:25.776Z,29.51
2019-04-23T11:29:38.805Z,28.91
2019-04-23T11:32:21.513Z,29.01
2019-04-23T11:33:04.477Z,29.01
2019-04-23T11:34:53.023Z,29.11
2019-04-23T11:36:53.980Z,29.11
2019-04-23T11:37:58.722Z,29.11
2019-04-23T11:38:12.373Z,29.51
2019-04-23T11:38:54.572Z,28.91
2019-04-23T11:41:41.811Z,28.91
2019-04-23T11:42:57.998Z,29.11
2019-04-23T11:44:23.339Z,29.11
2019-04-23T11:45:51.151Z,29.11
2019-04-23T11:46:53.966Z,29.21
2019-04-23T11:49:48.137Z,28.91
2019-04-23T11:51:21.788Z,29.11
2019-04-23T11:52:08.473Z,29.21
2019-04-23T11:53:20.523Z,29.21
2019-04-23T11:55:30.961Z,28.81
2019-04-23T11:56:33.534Z,29.10
2019-04-23T11:58:39.654Z,29.21
2019-04-23T11:59:52.846Z,28.91
2019-04-23T12:01:38.579Z,29.21
2019-04-23T12:02:43.316Z,29.11
2019-04-23T12:04:14.141Z,29.21
2019-04-23T12:05:29.806Z,28.91
2019-04-23T12:06:45.989Z,29.01
2019-04-23T12:08:08.004Z,29.21
2019-04-23T12:11:00.221Z,28.70
2019-04-23T12:13:22.992Z,29.10
2019-04-23T12:14:24.624Z,29.11
2019-04-23T12:15:39.575Z,29.10
2019-04-23T12:17:07.853Z,29.19
2019-04-23T12:18:19.835Z,28.10
2019-04-23T12:20:56.772Z,29.10
2019-04-23T12:23:54.485Z,28.99
2019-04-23T12:25:22.826Z,29.10
2019-04-23T12:26:47.166Z,29.19
2019-04-23T12:27:31.662Z,29.19
2019-04-23T12:28:52.822Z,28.99
2019-04-23T12:30:18.953Z,28.30
2019-04-23T12:31:37.936Z,28.90
2019-04-23T12:34:28.457Z,28.88
2019-04-23T12:35:39.362Z,28.79
2019-04-23T12:37:10.089Z,29.08
2019-04-23T12:38:27.008Z,28.90
2019-04-23T12:39:49.776Z,29.10
2019-04-23T12:41:13.273Z,29.10
2019-04-23T12:43:57.862Z,29.18
2019-04-23T12:45:27.450Z,28.98
2019-04-23T12:46:50.479Z,28.99
2019-04-23T12:48:18.329Z,28.49
2019-04-23T12:49:22.262Z,28.88
2019-04-23T12:51:37.957Z,28.98
2019-04-23T12:54:20.355Z,29.29
2019-04-23T12:57:05.298Z,29.28
2019-04-23T12:58:21.942Z,29.28
2019-04-23T12:59:44.808Z,29.28
2019-04-23T13:00:58.018Z,29.38
2019-04-23T13:02:32.762Z,29.28
2019-04-23T13:03:41.147Z,29.18
2019-04-23T13:05:11.860Z,28.79
2019-04-23T13:06:28.075Z,28.98
2019-04-23T13:07:55.641Z,28.88
2019-04-23T13:09:26.451Z,29.18
2019-04-23T13:10:14.811Z,28.68
2019-04-23T13:11:36.639Z,29.28
2019-04-23T13:13:03.926Z,28.98
2019-04-23T13:14:25.215Z,29.47
2019-04-23T13:17:25.214Z,29.18
2019-04-23T13:18:41.430Z,28.98
2019-04-23T13:21:38.481Z,29.18
2019-04-23T13:22:23.999Z,29.08
2019-04-23T13:24:04.130Z,29.58
2019-04-23T13:24:46.247Z,29.18
2019-04-23T13:26:00.432Z,29.47
2019-04-23T13:27:42.515Z,29.08
2019-04-23T13:29:13.538Z,29.28
2019-04-23T13:29:56.772Z,29.08
2019-04-23T13:31:10.513Z,29.19
2019-04-23T13:32:37.448Z,29.18
2019-04-23T13:34:19.537Z,29.28
2019-04-23T13:35:14.808Z,28.79
2019-04-23T13:36:08.160Z,29.08
2019-04-23T13:37:29.510Z,29.28
2019-04-23T13:38:40.448Z,29.28
2019-04-23T13:40:09.621Z,29.47
2019-04-23T13:44:13.377Z,29.47
2019-04-23T13:45:53.025Z,29.49
2019-04-23T13:46:50.897Z,29.28
2019-04-23T13:48:01.241Z,29.29
2019-04-23T13:49:16.137Z,29.47
2019-04-23T13:52:16.006Z,28.99
2019-04-23T13:55:42.812Z,29.68
2019-04-23T13:58:26.713Z,29.58
2019-04-23T13:59:56.111Z,29.38
2019-04-23T14:01:28.052Z,29.39
2019-04-23T14:02:55.523Z,29.69
2019-04-23T14:03:40.564Z,29.68
2019-04-23T14:05:02.071Z,29.47
2019-04-23T14:07:51.519Z,29.68
2019-04-23T14:09:17.259Z,29.77
2019-04-23T14:10:36.568Z,29.58
2019-04-23T14:11:38.713Z,29.58
2019-04-23T14:13:31.117Z,29.68
2019-04-23T14:14:15.159Z,29.19
2019-04-23T14:15:40.498Z,29.19
2019-04-23T14:17:04.935Z,29.28
2019-04-23T14:18:41.968Z,29.49
2019-04-23T14:19:12.181Z,29.39
2019-04-23T14:20:40.384Z,29.49
2019-04-23T14:22:21.089Z,29.29
2019-04-23T14:23:14.319Z,29.10
2019-04-23T14:24:38.901Z,29.29
2019-04-23T14:27:20.191Z,29.59
2019-04-23T14:28:41.804Z,29.39
2019-04-23T14:30:05.533Z,29.10
2019-04-23T14:31:01.142Z,29.29
2019-04-23T14:32:23.379Z,29.79
2019-04-23T14:33:46.975Z,29.10
2019-04-23T14:35:11.217Z,29.49
2019-04-23T14:38:01.357Z,29.29
2019-04-23T14:39:09.846Z,29.29
2019-04-23T14:40:34.946Z,29.29
2019-04-23T14:43:02.073Z,29.29
2019-04-23T14:44:12.955Z,29.29
2019-04-23T14:46:23.086Z,29.29
2019-04-23T14:48:19.671Z,29.39
2019-04-23T14:49:55.427Z,29.49
2019-04-23T14:52:04.670Z,29.39
2019-04-23T14:55:31.663Z,29.89
2019-04-23T14:57:25.873Z,29.68
2019-04-23T14:58:17.126Z,29.49
2019-04-23T14:59:21.841Z,29.99
2019-04-23T15:16:39.798Z,29.99
2019-04-23T15:18:05.837Z,29.39
2019-04-23T15:19:31.547Z,29.59
2019-04-23T15:20:51.762Z,29.49
2019-04-23T15:21:53.740Z,29.59
2019-04-23T15:24:27.546Z,29.29
2019-04-23T15:26:37.255Z,29.29
2019-04-23T15:27:53.658Z,29.29
2019-04-23T15:28:54.486Z,29.59
2019-04-23T15:30:27.748Z,29.49
2019-04-23T15:32:03.055Z,29.49
2019-04-23T15:34:45.476Z,29.59
2019-04-23T15:36:30.597Z,29.59
2019-04-23T15:37:18.959Z,29.60
2019-04-23T15:39:29.265Z,29.21
2019-04-23T15:40:45.671Z,29.11
2019-04-23T15:42:10.958Z,29.30
2019-04-23T15:43:30.577Z,29.19
2019-04-23T15:44:55.804Z,29.80
2019-04-23T15:46:20.174Z,29.21
2019-04-23T15:47:40.452Z,29.51
2019-04-23T15:49:08.244Z,29.60
2019-04-23T15:50:23.434Z,29.80
2019-04-23T15:51:52.453Z,29.71
2019-04-23T15:53:01.372Z,29.90
2019-04-23T15:54:25.318Z,29.41
2019-04-23T15:55:49.464Z,29.80
2019-04-23T15:57:11.873Z,30.00
2019-04-23T15:59:55.401Z,30.20
2019-04-23T16:01:22.255Z,29.60
2019-04-23T16:02:09.717Z,29.80
2019-04-23T16:03:10.428Z,29.90
2019-04-23T16:04:11.296Z,29.80
2019-04-23T16:05:12.122Z,29.90
2019-04-23T16:06:12.769Z,30.20
2019-04-23T16:07:10.549Z,29.80
2019-04-23T16:08:45.829Z,29.90
2019-04-23T16:10:04.382Z,30.20
2019-04-23T16:11:36.427Z,30.00
2019-04-23T16:12:43.221Z,29.60
2019-04-23T16:14:17.011Z,30.00
2019-04-23T16:15:25.741Z,30.20
2019-04-23T16:18:22.112Z,29.60
2019-04-23T16:19:58.012Z,29.90
2019-04-23T16:20:51.664Z,29.71
2019-04-23T16:21:47.391Z,29.71
2019-04-23T16:22:50.463Z,29.80
2019-04-23T16:24:21.940Z,30.30
2019-04-23T16:25:44.477Z,30.00
2019-04-23T16:27:07.205Z,30.10
2019-04-23T16:28:28.937Z,30.10
2019-04-23T16:29:54.097Z,30.30
2019-04-23T16:30:27.323Z,30.30
2019-04-23T16:31:47.805Z,30.20
2019-04-23T16:33:16.359Z,30.60
2019-04-23T16:34:33.245Z,30.40
2019-04-23T16:38:44.065Z,30.20
2019-04-23T16:40:10.385Z,30.10
2019-04-23T16:41:26.851Z,30.20
2019-04-23T16:42:49.279Z,30.21
2019-04-23T16:44:15.846Z,30.10
2019-04-23T16:45:34.378Z,30.40
2019-04-23T16:47:04.563Z,30.41
2019-04-23T16:48:46.104Z,30.51
2019-04-23T16:51:11.212Z,30.12
2019-04-23T16:51:37.456Z,29.72
2019-04-23T16:53:11.652Z,29.92
2019-04-23T16:54:33.188Z,29.72
2019-04-23T16:57:22.730Z,30.02
2019-04-23T17:01:14.684Z,30.12
2019-04-23T17:02:47.670Z,30.62
2019-04-23T17:04:03.739Z,30.62
2019-04-23T17:05:23.665Z,30.43
2019-04-23T17:06:44.190Z,30.62
2019-04-23T17:08:31.094Z,30.51
2019-04-23T17:09:12.259Z,30.62
2019-04-23T17:10:28.098Z,31.11
2019-04-23T17:11:59.476Z,31.21
2019-04-23T17:14:30.637Z,30.83
2019-04-23T17:17:14.817Z,31.23
2019-04-23T17:18:37.549Z,31.31
2019-04-23T17:20:08.897Z,31.01
2019-04-23T17:21:24.063Z,30.81
2019-04-23T17:22:51.029Z,31.12
2019-04-23T17:24:14.594Z,30.83
2019-04-23T17:25:48.803Z,30.53
2019-04-23T17:26:29.058Z,30.63
2019-04-23T17:27:54.386Z,30.63
2019-04-23T17:29:28.300Z,30.43
2019-04-23T17:30:48.651Z,30.53
2019-04-23T17:33:11.700Z,31.42
2019-04-23T17:35:56.124Z,31.42
2019-04-23T17:37:12.413Z,31.42
2019-04-23T17:38:32.961Z,31.42
2019-04-23T17:44:00.922Z,31.03
2019-04-23T17:48:11.484Z,30.93
2019-04-23T17:49:22.203Z,31.23
2019-04-23T17:53:30.119Z,30.84
2019-04-23T17:56:27.138Z,31.14
2019-04-23T17:57:22.596Z,32.04
2019-04-23T17:58:35.407Z,32.14
2019-04-23T18:00:16.042Z,31.64
2019-04-23T18:01:11.331Z,31.74
2019-04-23T18:03:49.198Z,31.84
2019-04-23T18:09:16.105Z,32.04
2019-04-23T18:10:38.773Z,31.44
2019-04-23T18:14:36.817Z,31.75
2019-04-23T18:17:27.235Z,32.15
2019-04-23T18:18:55.221Z,31.75
2019-04-23T18:20:12.940Z,32.15
2019-04-23T18:21:41.091Z,31.65
2019-04-23T18:24:23.457Z,31.45
2019-04-23T18:25:36.842Z,31.95
2019-04-23T18:29:47.505Z,31.95
2019-04-23T18:32:36.048Z,32.35
2019-04-23T18:43:39.016Z,32.55
2019-04-23T18:50:02.343Z,32.25
2019-04-23T18:52:40.879Z,32.25
2019-04-23T18:53:52.715Z,32.25
